AYPY

Port Moresby Jacksons International Airport

Port Moresby, Papua New Guinea

AYPY 102300Z 13003KT 9999 FEW018 BKN300 29/24 Q1009

Observed Flight Rules
Dec-10 @ 23:00 UTC (an hour ago) Visual Flight Rules
Wind Visibility Clouds
130° at 3 knots 10,000+ meters
  • Few at 1,800' AGL
  • Broken at 30,000' AGL
Temperatures Readings
Current 29°C / 84°F
Dewpoint 24°C / 75°F
Humidity 74%
Altimeter 29.79" Hg
Pressure 1009 hPa
Elevation 47
Observed Flight Rules
Dec-10 @ 23:00 UTC
(an hour ago)
VFR
Wind Visibility
130° at 3 knots 10,000+ meters
Clouds
  • Few at 1,800' AGL
  • Broken at 30,000' AGL
Temperature Dewpoint
29°C / 84°F 24°C / 75°F
Humidity Altimeter Pressure
74% 29.79" Hg 1009 hPa